Time;durP1;ratioP1;P1;durP2;ratioP2;P2;SDS_P1;SDS_P2;PMS_P1;PMS_P2;Temp;Humidity;BMP_temperature;BMP_pressure;BME280_temperature;BME280_humidity;BME280_pressure;Samples;Min_cycle;Max_cycle;Signal;HPM_P1;HPM_P2
2023/07/04 00:01:18;;;;;;;11.20;2.03;;;12.30;99.90;;;;;;4938008;28;20031;-61
2023/07/04 00:03:46;;;;;;;11.55;2.58;;;12.30;99.90;;;;;;4927070;28;20457;-61
2023/07/04 00:06:14;;;;;;;9.45;1.70;;;12.30;99.90;;;;;;4938518;28;20070;-61
2023/07/04 00:08:40;;;;;;;8.00;1.80;;;12.30;99.90;;;;;;4940333;28;20053;-61
2023/07/04 00:11:07;;;;;;;8.45;2.05;;;12.20;99.90;;;;;;4942440;28;20070;-60
2023/07/04 00:13:35;;;;;;;8.05;1.60;;;12.20;99.90;;;;;;4939831;28;20046;-61
2023/07/04 00:16:05;;;;;;;8.93;1.73;;;12.20;99.90;;;;;;4926039;29;20055;-61
2023/07/04 00:18:31;;;;;;;7.07;1.80;;;12.20;99.90;;;;;;4921351;28;20082;-61
2023/07/04 00:20:59;;;;;;;10.52;1.70;;;12.10;99.90;;;;;;4940177;28;20456;-61
2023/07/04 00:23:27;;;;;;;8.20;1.85;;;12.10;99.90;;;;;;4938355;28;20046;-60
2023/07/04 00:25:53;;;;;;;7.80;1.75;;;12.10;99.90;;;;;;4938115;28;20047;-60
2023/07/04 00:28:21;;;;;;;7.22;1.77;;;12.10;99.90;;;;;;4940360;28;20459;-60
2023/07/04 00:30:47;;;;;;;7.38;1.65;;;12.10;99.90;;;;;;4935375;28;20046;-61
2023/07/04 00:33:13;;;;;;;6.32;1.45;;;12.10;99.90;;;;;;4941942;28;20089;-61
2023/07/04 00:35:39;;;;;;;6.15;1.50;;;12.00;99.90;;;;;;4924098;28;20059;-60
2023/07/04 00:38:05;;;;;;;6.68;1.60;;;12.10;99.90;;;;;;4922654;29;20194;-61
2023/07/04 00:40:31;;;;;;;9.07;1.83;;;12.00;99.90;;;;;;4935434;28;20123;-60
2023/07/04 00:43:02;;;;;;;8.02;1.70;;;12.00;99.90;;;;;;4937722;28;20078;-61
2023/07/04 00:45:31;;;;;;;7.20;1.70;;;12.00;99.90;;;;;;4941600;28;20073;-61
2023/07/04 00:48:03;;;;;;;7.82;1.63;;;12.00;99.90;;;;;;4940076;28;20051;-61
2023/07/04 00:50:35;;;;;;;8.55;1.73;;;12.00;99.90;;;;;;4922281;29;20054;-60
2023/07/04 00:53:08;;;;;;;8.40;1.70;;;12.00;99.90;;;;;;4937999;28;20043;-61
2023/07/04 00:55:37;;;;;;;9.00;2.00;;;12.00;99.90;;;;;;4937619;28;20102;-61
2023/07/04 00:58:04;;;;;;;9.15;1.70;;;11.90;99.90;;;;;;4938693;28;20047;-61
2023/07/04 01:00:31;;;;;;;7.22;1.67;;;11.90;99.90;;;;;;4920739;28;20094;-61
2023/07/04 01:03:20;;;;;;;6.43;1.70;;;11.90;99.90;;;;;;4905125;28;20043;-61
2023/07/04 01:06:14;;;;;;;7.50;1.80;;;11.90;99.90;;;;;;4925030;29;20079;-61
2023/07/04 01:08:43;;;;;;;5.43;1.63;;;11.90;99.90;;;;;;4922231;29;20048;-61
2023/07/04 01:11:32;;;;;;;9.82;2.30;;;11.90;99.90;;;;;;4920444;28;20035;-60
2023/07/04 01:13:58;;;;;;;5.18;2.20;;;11.90;99.90;;;;;;4935231;28;20117;-61
2023/07/04 01:16:24;;;;;;;7.95;1.63;;;11.90;99.90;;;;;;4938336;28;20047;-61
2023/07/04 01:18:54;;;;;;;7.85;1.90;;;11.80;99.90;;;;;;4938194;28;20048;-61
2023/07/04 01:21:27;;;;;;;4.90;1.70;;;11.90;99.90;;;;;;4940246;28;20051;-61
2023/07/04 01:24:11;;;;;;;6.70;1.95;;;12.00;99.90;;;;;;4939054;28;20047;-61
2023/07/04 01:26:43;;;;;;;6.55;2.08;;;12.00;99.90;;;;;;4935570;28;20091;-61
2023/07/04 01:29:14;;;;;;;6.43;2.17;;;12.00;99.90;;;;;;4937639;28;20123;-61
2023/07/04 01:31:43;;;;;;;8.63;2.65;;;12.00;99.90;;;;;;4935045;29;20054;-61
2023/07/04 01:34:11;;;;;;;7.13;2.10;;;12.10;99.90;;;;;;4906245;28;20589;-61
2023/07/04 01:36:41;;;;;;;7.18;2.05;;;12.00;99.90;;;;;;4936155;28;20125;-61
2023/07/04 01:39:14;;;;;;;7.80;2.78;;;12.10;99.90;;;;;;4937111;28;20039;-61
2023/07/04 01:41:47;;;;;;;9.35;2.20;;;12.10;99.90;;;;;;4935366;28;20434;-61
2023/07/04 01:44:16;;;;;;;8.73;1.90;;;12.10;99.90;;;;;;4922812;28;20138;-61
2023/07/04 01:46:42;;;;;;;7.88;2.00;;;12.10;99.90;;;;;;4908633;28;20074;-61
2023/07/04 01:49:09;;;;;;;10.32;2.45;;;12.00;99.90;;;;;;4941037;29;20178;-61
2023/07/04 01:51:40;;;;;;;4.60;1.80;;;12.00;99.90;;;;;;4928670;29;20051;-60
2023/07/04 01:54:07;;;;;;;9.32;1.70;;;12.00;99.90;;;;;;4922847;29;20043;-61
2023/07/04 01:56:36;;;;;;;8.90;2.10;;;12.00;99.90;;;;;;4940338;28;20043;-61
2023/07/04 01:59:01;;;;;;;8.85;2.30;;;11.90;99.90;;;;;;4919667;28;20118;-60
2023/07/04 02:01:27;;;;;;;8.20;2.13;;;11.90;99.90;;;;;;4938803;28;20630;-61
2023/07/04 02:03:53;;;;;;;6.82;1.90;;;11.90;99.90;;;;;;4922229;29;20496;-61
2023/07/04 02:06:19;;;;;;;10.35;2.53;;;11.80;99.90;;;;;;4920637;29;20057;-61
2023/07/04 02:08:45;;;;;;;6.18;2.10;;;11.80;99.90;;;;;;4935009;28;20040;-61
2023/07/04 02:11:12;;;;;;;6.15;2.22;;;11.70;99.90;;;;;;4926193;29;20043;-61
2023/07/04 02:13:38;;;;;;;6.45;2.10;;;11.70;99.90;;;;;;4922535;29;20047;-61
2023/07/04 02:16:04;;;;;;;5.97;2.05;;;11.70;99.90;;;;;;4921102;28;20035;-61
2023/07/04 02:18:30;;;;;;;7.78;2.13;;;11.70;99.90;;;;;;4938822;28;20067;-61
2023/07/04 02:20:56;;;;;;;6.47;2.10;;;11.70;99.90;;;;;;4936092;28;20081;-61
2023/07/04 02:23:22;;;;;;;10.15;2.20;;;11.70;99.90;;;;;;4942223;28;20462;-60
2023/07/04 02:25:48;;;;;;;5.97;2.33;;;11.70;99.90;;;;;;4940187;28;20038;-61
2023/07/04 02:28:15;;;;;;;7.43;2.03;;;11.70;99.90;;;;;;4942681;28;20058;-61
2023/07/04 02:30:42;;;;;;;7.20;2.20;;;11.70;99.90;;;;;;4944289;28;20169;-61
2023/07/04 02:33:08;;;;;;;7.25;2.45;;;11.70;99.90;;;;;;4943229;28;20149;-61
2023/07/04 02:35:33;;;;;;;7.63;2.45;;;11.70;99.90;;;;;;4945255;28;20141;-61
2023/07/04 02:37:59;;;;;;;8.75;2.47;;;11.70;99.90;;;;;;4942847;28;20050;-61
2023/07/04 02:40:25;;;;;;;13.50;3.05;;;11.70;99.90;;;;;;4945567;28;20090;-61
2023/07/04 02:42:50;;;;;;;10.50;2.17;;;11.70;99.90;;;;;;4939736;28;20142;-61
2023/07/04 02:45:16;;;;;;;11.50;2.70;;;11.70;99.90;;;;;;4925921;28;20066;-61
2023/07/04 02:47:42;;;;;;;5.88;2.50;;;11.70;99.90;;;;;;4938295;28;20047;-61
2023/07/04 02:50:08;;;;;;;9.75;2.25;;;11.80;99.90;;;;;;4942999;28;20488;-61
2023/07/04 02:52:34;;;;;;;9.63;2.75;;;11.80;99.90;;;;;;4929060;28;20044;-61
2023/07/04 02:54:59;;;;;;;10.25;2.88;;;11.80;99.90;;;;;;4941442;28;20040;-61
2023/07/04 02:57:25;;;;;;;6.57;2.70;;;11.80;99.90;;;;;;4912886;29;20396;-61
2023/07/04 02:59:52;;;;;;;9.13;2.10;;;11.90;99.90;;;;;;4940650;28;20095;-61
2023/07/04 03:02:18;;;;;;;10.25;2.95;;;11.90;99.90;;;;;;4941218;28;20491;-60
2023/07/04 03:04:45;;;;;;;8.73;2.40;;;12.00;99.90;;;;;;4942051;28;20114;-59
2023/07/04 03:07:11;;;;;;;6.95;2.20;;;12.00;99.90;;;;;;4938934;28;20039;-61
2023/07/04 03:09:37;;;;;;;10.25;2.50;;;12.10;99.90;;;;;;4925186;28;20054;-61
2023/07/04 03:12:03;;;;;;;8.45;2.53;;;12.20;99.90;;;;;;4923509;29;20040;-61
2023/07/04 03:14:29;;;;;;;7.93;2.15;;;12.20;99.90;;;;;;4928583;28;20078;-61
2023/07/04 03:16:54;;;;;;;6.97;1.90;;;12.20;99.90;;;;;;4941140;28;20122;-61
2023/07/04 03:19:20;;;;;;;5.72;2.20;;;12.20;99.90;;;;;;4898315;29;20098;-61
2023/07/04 03:21:46;;;;;;;4.75;2.08;;;12.30;99.90;;;;;;4925031;28;20510;-61
2023/07/04 03:24:12;;;;;;;5.63;1.52;;;12.30;99.90;;;;;;4941472;28;20044;-61
2023/07/04 03:26:38;;;;;;;4.82;2.05;;;12.30;99.90;;;;;;4956233;28;20035;-61
2023/07/04 03:29:04;;;;;;;2.78;1.60;;;12.30;99.90;;;;;;4930573;29;20046;-61
2023/07/04 03:31:30;;;;;;;5.05;1.58;;;12.30;99.90;;;;;;4942061;28;20039;-61
2023/07/04 03:33:56;;;;;;;6.38;1.83;;;12.30;99.90;;;;;;4942477;28;20058;-60
2023/07/04 03:36:21;;;;;;;6.15;1.65;;;12.30;99.90;;;;;;4926731;29;20400;-61
2023/07/04 03:38:47;;;;;;;3.50;1.52;;;12.30;99.90;;;;;;4941654;28;20047;-61
2023/07/04 03:41:13;;;;;;;5.07;1.70;;;12.30;99.90;;;;;;4938752;28;20039;-60
2023/07/04 03:43:39;;;;;;;3.65;1.58;;;12.30;99.90;;;;;;4939881;28;20063;-61
2023/07/04 03:46:05;;;;;;;4.20;1.58;;;12.30;99.90;;;;;;4941072;28;20051;-61
2023/07/04 03:48:31;;;;;;;8.38;1.65;;;12.30;99.90;;;;;;4940847;28;20175;-61
2023/07/04 03:50:57;;;;;;;6.13;1.63;;;12.40;99.90;;;;;;4940204;28;20051;-61
2023/07/04 03:53:22;;;;;;;4.03;1.63;;;12.40;99.90;;;;;;4940873;28;20105;-61
2023/07/04 03:55:49;;;;;;;4.22;1.58;;;12.40;99.90;;;;;;4944023;28;20044;-61
2023/07/04 03:58:17;;;;;;;7.32;1.60;;;12.40;99.90;;;;;;4942381;29;20046;-61
2023/07/04 04:00:46;;;;;;;3.90;1.40;;;12.40;99.90;;;;;;4938451;28;20047;-61
2023/07/04 04:03:12;;;;;;;4.50;1.30;;;12.40;99.90;;;;;;4938548;28;20047;-61
2023/07/04 04:05:39;;;;;;;4.90;1.52;;;12.40;99.90;;;;;;4940156;28;20044;-61
2023/07/04 04:08:04;;;;;;;6.93;1.70;;;12.40;99.90;;;;;;4924430;29;20042;-61
2023/07/04 04:10:32;;;;;;;7.00;1.90;;;12.40;99.90;;;;;;4941196;28;20039;-61
2023/07/04 04:12:57;;;;;;;5.63;1.75;;;12.40;99.90;;;;;;4912199;28;20099;-61
2023/07/04 04:15:23;;;;;;;4.95;1.52;;;12.40;99.90;;;;;;4916034;28;20181;-61
2023/07/04 04:17:49;;;;;;;3.13;1.77;;;12.40;99.90;;;;;;4926075;28;20047;-61
2023/07/04 04:20:15;;;;;;;4.95;1.25;;;12.40;99.90;;;;;;4927525;29;20035;-61
2023/07/04 04:22:45;;;;;;;4.70;1.88;;;12.50;99.90;;;;;;4931218;29;22054;-61
2023/07/04 04:25:12;;;;;;;4.25;1.33;;;12.50;99.90;;;;;;4925520;28;20125;-61
2023/07/04 04:27:38;;;;;;;2.88;1.45;;;12.50;99.90;;;;;;4941016;28;20047;-61
2023/07/04 04:30:08;;;;;;;5.22;1.38;;;12.50;99.90;;;;;;4941354;28;20051;-61
2023/07/04 04:32:35;;;;;;;2.55;1.30;;;12.60;99.90;;;;;;4927630;28;20163;-61
2023/07/04 04:35:01;;;;;;;7.55;1.40;;;12.60;99.90;;;;;;4924556;28;20098;-61
2023/07/04 04:37:27;;;;;;;3.63;1.58;;;12.60;99.90;;;;;;4922787;29;20495;-61
2023/07/04 04:39:52;;;;;;;3.78;1.65;;;12.70;99.90;;;;;;4940914;28;20044;-61
2023/07/04 04:42:23;;;;;;;4.45;1.60;;;12.70;99.90;;;;;;4932588;28;20046;-61
2023/07/04 04:44:53;;;;;;;3.13;1.67;;;12.70;99.90;;;;;;4933906;28;20065;-61
2023/07/04 04:47:23;;;;;;;4.93;1.60;;;12.80;99.90;;;;;;4935454;28;20048;-61
2023/07/04 04:50:08;;;;;;;2.97;1.40;;;12.80;99.90;;;;;;4918658;28;20448;-60
2023/07/04 04:52:33;;;;;;;4.78;1.90;;;12.80;99.90;;;;;;4916819;29;20051;-60
2023/07/04 04:55:03;;;;;;;6.35;1.80;;;12.80;99.90;;;;;;4935440;28;20349;-61
2023/07/04 04:57:29;;;;;;;4.30;1.85;;;12.80;99.90;;;;;;4928726;28;20111;-61
2023/07/04 04:59:59;;;;;;;4.55;2.10;;;12.80;99.90;;;;;;4898036;29;20767;-61
2023/07/04 05:02:28;;;;;;;7.60;2.15;;;12.80;99.90;;;;;;4929675;28;20058;-61
2023/07/04 05:04:53;;;;;;;6.07;2.22;;;12.90;99.90;;;;;;4915856;28;20066;-61
2023/07/04 05:07:23;;;;;;;5.53;2.40;;;12.90;99.90;;;;;;4931205;28;20194;-61
2023/07/04 05:09:52;;;;;;;4.47;2.05;;;12.90;99.90;;;;;;4932036;28;20165;-60
2023/07/04 05:12:17;;;;;;;3.95;1.92;;;13.00;99.90;;;;;;4931471;28;20054;-61
2023/07/04 05:14:43;;;;;;;5.43;2.05;;;13.00;99.90;;;;;;4937982;28;20039;-61
2023/07/04 05:17:09;;;;;;;4.78;1.98;;;13.10;99.90;;;;;;4909581;29;20185;-61
2023/07/04 05:19:35;;;;;;;3.53;1.85;;;13.10;99.90;;;;;;4933414;28;20040;-61
2023/07/04 05:22:01;;;;;;;5.63;2.30;;;13.10;99.90;;;;;;4936071;28;20039;-61
2023/07/04 05:24:27;;;;;;;2.92;1.88;;;13.20;99.90;;;;;;4932497;28;20055;-61
2023/07/04 05:26:53;;;;;;;3.42;1.88;;;13.20;99.90;;;;;;4885001;28;20039;-61
2023/07/04 05:29:19;;;;;;;6.00;2.15;;;13.30;99.90;;;;;;4930939;28;20048;-59
2023/07/04 05:31:44;;;;;;;9.05;2.83;;;13.30;99.90;;;;;;4932983;28;20646;-60
2023/07/04 05:34:10;;;;;;;5.65;2.20;;;13.30;99.90;;;;;;4921742;28;20051;-61
2023/07/04 05:36:37;;;;;;;6.13;2.45;;;13.40;99.90;;;;;;4937390;28;20787;-60
2023/07/04 05:39:06;;;;;;;9.35;2.40;;;13.40;99.90;;;;;;4949045;28;20066;-59
2023/07/04 05:41:33;;;;;;;6.82;2.65;;;13.40;99.90;;;;;;4920676;28;20070;-61
2023/07/04 05:44:02;;;;;;;7.40;2.50;;;13.40;99.90;;;;;;4918993;28;20059;-60
2023/07/04 05:46:27;;;;;;;6.75;2.78;;;13.50;99.90;;;;;;4938020;28;20114;-59
2023/07/04 05:48:53;;;;;;;6.13;2.60;;;13.60;99.90;;;;;;4904120;28;20098;-61
2023/07/04 05:51:20;;;;;;;6.10;2.67;;;13.60;99.90;;;;;;4917694;29;20035;-60
2023/07/04 05:53:47;;;;;;;7.45;2.83;;;13.70;99.90;;;;;;4907446;29;20043;-59
2023/07/04 05:56:16;;;;;;;6.72;2.50;;;13.80;99.90;;;;;;4930019;29;20039;-60
2023/07/04 05:58:44;;;;;;;5.75;1.98;;;13.90;99.90;;;;;;4927960;28;20105;-62
2023/07/04 06:01:12;;;;;;;6.07;2.45;;;13.90;99.90;;;;;;4899084;29;20063;-59
2023/07/04 06:03:39;;;;;;;7.93;2.33;;;13.90;99.90;;;;;;4903032;29;20039;-60
2023/07/04 06:06:06;;;;;;;5.57;2.00;;;14.00;99.90;;;;;;4919006;28;20062;-61
2023/07/04 06:08:33;;;;;;;4.55;1.83;;;14.10;99.90;;;;;;4916563;28;20047;-61
2023/07/04 06:11:00;;;;;;;6.18;1.80;;;14.20;99.90;;;;;;4916092;28;20043;-62
2023/07/04 06:13:26;;;;;;;4.88;1.67;;;14.30;99.90;;;;;;4916187;28;20797;-61
2023/07/04 06:15:52;;;;;;;5.63;2.03;;;14.40;99.90;;;;;;4929838;28;20047;-61
2023/07/04 06:18:17;;;;;;;7.50;2.00;;;14.50;99.90;;;;;;4917792;29;20039;-60
2023/07/04 06:20:43;;;;;;;4.22;1.70;;;14.50;99.90;;;;;;4922025;29;20043;-61
2023/07/04 06:23:09;;;;;;;5.53;1.92;;;14.60;99.90;;;;;;4916402;28;20047;-59
2023/07/04 06:25:34;;;;;;;13.32;1.75;;;14.70;99.90;;;;;;4887609;28;20480;-60
2023/07/04 06:28:01;;;;;;;5.63;1.92;;;14.80;99.90;;;;;;4901537;29;20051;-60
2023/07/04 06:30:29;;;;;;;9.00;1.63;;;14.80;99.90;;;;;;4917287;29;20055;-60
2023/07/04 06:32:58;;;;;;;3.22;1.50;;;14.90;99.90;;;;;;4929401;28;20062;-60
2023/07/04 06:35:24;;;;;;;4.00;1.63;;;14.90;99.90;;;;;;4915524;28;20057;-62
2023/07/04 06:37:50;;;;;;;5.28;1.35;;;14.90;99.90;;;;;;4917731;28;20059;-60
2023/07/04 06:40:18;;;;;;;8.65;1.75;;;15.10;99.90;;;;;;4921866;29;20054;-61
2023/07/04 06:42:43;;;;;;;5.15;1.52;;;15.20;99.90;;;;;;4915287;29;20086;-60
2023/07/04 06:45:09;;;;;;;11.07;1.92;;;15.30;99.90;;;;;;4915401;28;20094;-60
2023/07/04 06:47:35;;;;;;;5.28;1.75;;;15.30;99.90;;;;;;4918028;28;20575;-60
2023/07/04 06:50:01;;;;;;;6.95;1.92;;;15.40;99.90;;;;;;4919804;29;20507;-59
2023/07/04 06:52:26;;;;;;;4.53;1.65;;;15.50;99.90;;;;;;4916359;29;20054;-61
2023/07/04 06:54:52;;;;;;;4.72;1.50;;;15.50;99.90;;;;;;4924360;29;20535;-60
2023/07/04 06:57:19;;;;;;;4.95;1.50;;;15.60;99.90;;;;;;4909554;28;20138;-62
2023/07/04 06:59:45;;;;;;;4.75;1.25;;;15.60;99.90;;;;;;4915166;28;20464;-60
2023/07/04 07:02:14;;;;;;;3.67;1.45;;;15.60;99.90;;;;;;4906603;29;20130;-60
2023/07/04 07:04:41;;;;;;;8.20;1.75;;;15.70;99.90;;;;;;4888078;28;20126;-60
2023/07/04 07:07:09;;;;;;;3.35;1.25;;;15.80;99.90;;;;;;4901413;28;20051;-60
2023/07/04 07:09:42;;;;;;;5.43;1.70;;;15.90;99.90;;;;;;4910040;29;20577;-61
2023/07/04 07:12:10;;;;;;;6.45;1.25;;;16.00;99.90;;;;;;4916224;28;20595;-61
2023/07/04 07:14:37;;;;;;;6.45;1.40;;;16.20;99.90;;;;;;4926447;29;20041;-60
2023/07/04 07:17:06;;;;;;;10.00;1.50;;;16.30;99.90;;;;;;4922279;29;20403;-60
2023/07/04 07:19:33;;;;;;;5.28;1.45;;;16.40;99.90;;;;;;4924376;29;20074;-61
2023/07/04 07:22:00;;;;;;;4.53;1.63;;;16.50;99.90;;;;;;4923365;28;20051;-59
2023/07/04 07:24:28;;;;;;;6.53;1.60;;;16.50;99.90;;;;;;4917740;28;20051;-61
2023/07/04 07:26:54;;;;;;;3.20;1.30;;;16.50;99.90;;;;;;4915207;29;20058;-61
2023/07/04 07:29:19;;;;;;;7.65;1.40;;;16.50;99.90;;;;;;4923162;29;20046;-61
2023/07/04 07:31:46;;;;;;;3.83;1.70;;;16.60;99.90;;;;;;4922789;29;20412;-60
2023/07/04 07:34:12;;;;;;;4.00;1.25;;;16.70;99.90;;;;;;4920443;29;20051;-60
2023/07/04 07:36:41;;;;;;;3.92;1.33;;;16.90;99.90;;;;;;4938740;28;20035;-61
2023/07/04 07:39:09;;;;;;;4.85;1.50;;;17.00;99.90;;;;;;4942013;28;20487;-60
2023/07/04 07:41:38;;;;;;;6.78;1.60;;;17.00;99.90;;;;;;4941534;28;20083;-60
2023/07/04 07:44:05;;;;;;;5.05;1.45;;;17.00;99.90;;;;;;4920923;29;20093;-61
2023/07/04 07:46:30;;;;;;;4.10;1.33;;;17.00;99.90;;;;;;4890874;29;20052;-61
2023/07/04 07:48:58;;;;;;;4.25;1.45;;;17.00;99.90;;;;;;4920784;29;20047;-60
2023/07/04 07:51:24;;;;;;;6.30;1.77;;;17.00;99.90;;;;;;4921041;28;20608;-61
2023/07/04 07:53:53;;;;;;;6.63;1.30;;;16.90;99.90;;;;;;4917436;29;20456;-60
2023/07/04 07:56:20;;;;;;;3.40;1.27;;;16.90;99.90;;;;;;4923546;29;20102;-61
2023/07/04 07:58:47;;;;;;;3.10;1.38;;;16.90;99.90;;;;;;4919028;29;20048;-60
2023/07/04 08:01:16;;;;;;;4.95;1.75;;;17.00;99.90;;;;;;4906437;29;20049;-61
2023/07/04 08:03:43;;;;;;;4.85;1.40;;;17.00;99.90;;;;;;4922870;29;20055;-61
2023/07/04 08:06:19;;;;;;;4.20;1.20;;;17.10;99.90;;;;;;4921431;29;20696;-61
2023/07/04 08:08:45;;;;;;;3.67;1.30;;;17.10;99.90;;;;;;4927825;28;20078;-60
2023/07/04 08:11:16;;;;;;;6.60;1.50;;;17.10;99.90;;;;;;4905621;28;20051;-61
2023/07/04 08:13:43;;;;;;;5.03;1.70;;;17.10;99.90;;;;;;4937672;28;20444;-62
2023/07/04 08:16:09;;;;;;;3.42;1.50;;;17.10;99.90;;;;;;4927883;28;20050;-60
2023/07/04 08:18:34;;;;;;;5.22;1.60;;;17.20;99.90;;;;;;4939375;28;20130;-60
2023/07/04 08:21:02;;;;;;;5.07;1.40;;;17.30;99.90;;;;;;4939490;28;20046;-60
2023/07/04 08:23:28;;;;;;;5.35;1.70;;;17.50;99.90;;;;;;4935523;28;20039;-60
2023/07/04 08:25:54;;;;;;;6.60;1.40;;;17.60;99.90;;;;;;4936010;28;20051;-62
2023/07/04 08:28:23;;;;;;;12.13;1.80;;;17.70;99.90;;;;;;4937664;28;20050;-61
2023/07/04 08:30:50;;;;;;;5.13;1.42;;;17.80;99.90;;;;;;4906492;29;20051;-61
2023/07/04 08:33:17;;;;;;;4.30;1.58;;;17.90;99.90;;;;;;4920761;28;20055;-60
2023/07/04 08:35:59;;;;;;;5.43;1.20;;;17.90;99.90;;;;;;4935147;28;20107;-60
2023/07/04 08:38:25;;;;;;;4.67;1.30;;;18.00;99.90;;;;;;4909406;29;20133;-60
2023/07/04 08:40:51;;;;;;;5.35;1.85;;;17.90;99.90;;;;;;4924590;29;20103;-60
2023/07/04 08:43:31;;;;;;;3.35;1.20;;;17.80;99.90;;;;;;4919747;28;20059;-60
2023/07/04 08:45:58;;;;;;;6.63;1.58;;;17.80;99.90;;;;;;4940189;28;20589;-59
2023/07/04 08:48:26;;;;;;;6.28;1.42;;;17.70;99.90;;;;;;4953893;28;20079;-60
2023/07/04 08:50:56;;;;;;;5.72;1.70;;;17.70;99.90;;;;;;4916578;28;20047;-60
2023/07/04 08:53:24;;;;;;;8.02;1.85;;;17.80;99.90;;;;;;4933814;28;20060;-60
2023/07/04 08:55:50;;;;;;;5.50;1.85;;;17.90;99.90;;;;;;4918219;29;20039;-61
2023/07/04 08:58:19;;;;;;;5.55;1.60;;;18.00;99.90;;;;;;4917205;28;20057;-61
2023/07/04 09:00:45;;;;;;;6.70;1.70;;;18.20;99.90;;;;;;4919026;29;20039;-61
2023/07/04 09:03:17;;;;;;;9.25;1.80;;;18.30;99.90;;;;;;4934702;28;20058;-62
2023/07/04 09:05:53;;;;;;;4.78;1.52;;;18.60;99.90;;;;;;4918148;28;20043;-62
2023/07/04 09:08:32;;;;;;;9.25;1.80;;;18.80;99.90;;;;;;4917857;29;20059;-61
2023/07/04 09:11:08;;;;;;;5.18;1.63;;;18.90;99.70;;;;;;4916034;28;20051;-61
2023/07/04 09:13:45;;;;;;;8.85;2.22;;;18.90;98.90;;;;;;4910146;29;20079;-60
2023/07/04 09:16:20;;;;;;;15.88;2.22;;;18.90;98.70;;;;;;4917031;28;20039;-60
2023/07/04 09:19:05;;;;;;;14.68;2.30;;;18.70;99.40;;;;;;4934200;28;20050;-60
2023/07/04 09:21:32;;;;;;;7.38;2.08;;;18.50;99.90;;;;;;4931603;28;20546;-60
2023/07/04 09:24:04;;;;;;;11.20;3.42;;;18.30;99.90;;;;;;4934872;28;20151;-61
2023/07/04 09:26:35;;;;;;;6.88;1.73;;;18.10;99.90;;;;;;4918982;29;20117;-61
2023/07/04 09:29:03;;;;;;;8.93;2.20;;;18.10;99.90;;;;;;4937801;28;20039;-60
2023/07/04 09:31:32;;;;;;;12.02;2.63;;;18.00;99.90;;;;;;4935486;28;20491;-60
2023/07/04 09:34:02;;;;;;;8.45;2.45;;;17.90;99.90;;;;;;4920988;29;20058;-61
2023/07/04 09:36:35;;;;;;;8.68;1.77;;;17.90;99.90;;;;;;4939652;28;20031;-61
2023/07/04 09:39:05;;;;;;;7.57;2.08;;;17.90;99.90;;;;;;4923193;29;20038;-61
2023/07/04 09:41:33;;;;;;;9.90;2.30;;;17.80;99.90;;;;;;4910166;29;20497;-60
2023/07/04 09:44:26;;;;;;;10.90;2.25;;;17.80;99.90;;;;;;4918530;29;20047;-60
2023/07/04 09:46:53;;;;;;;7.72;2.20;;;17.70;99.90;;;;;;4920110;29;20111;-60
2023/07/04 09:49:25;;;;;;;11.63;2.40;;;17.70;99.90;;;;;;4919801;28;20059;-61
2023/07/04 09:52:23;;;;;;;8.38;2.20;;;17.80;99.90;;;;;;4931953;28;20407;-61
2023/07/04 09:55:27;;;;;;;6.75;2.03;;;17.90;99.90;;;;;;4929484;29;20039;-60
2023/07/04 09:58:13;;;;;;;8.57;2.50;;;17.90;99.90;;;;;;4927933;28;20052;-60
2023/07/04 10:00:39;;;;;;;6.78;1.98;;;17.90;99.90;;;;;;4923029;28;20871;-60
2023/07/04 10:03:08;;;;;;;9.98;1.98;;;18.20;99.90;;;;;;4922437;29;20051;-61
2023/07/04 10:05:36;;;;;;;5.82;1.83;;;18.40;99.90;;;;;;4923722;29;20059;-60
2023/07/04 10:08:05;;;;;;;5.75;1.73;;;18.60;99.90;;;;;;4924691;29;20747;-60
2023/07/04 10:10:40;;;;;;;6.75;1.75;;;18.60;99.90;;;;;;4922115;29;20051;-61
2023/07/04 10:13:07;;;;;;;6.97;1.70;;;18.50;99.90;;;;;;4939802;28;20041;-62
2023/07/04 10:15:45;;;;;;;7.35;2.08;;;18.40;99.90;;;;;;4930019;28;20035;-60
2023/07/04 10:18:31;;;;;;;9.63;1.58;;;18.50;99.90;;;;;;4939336;28;20046;-61
2023/07/04 10:20:59;;;;;;;7.57;1.65;;;18.60;99.50;;;;;;4925619;29;20051;-60
2023/07/04 10:23:27;;;;;;;5.25;1.33;;;18.80;99.30;;;;;;4922082;28;20039;-62
2023/07/04 10:25:55;;;;;;;7.20;1.42;;;19.10;98.60;;;;;;4910170;29;20652;-60
2023/07/04 10:28:25;;;;;;;12.88;1.63;;;19.40;98.30;;;;;;4933192;28;20039;-62
2023/07/04 10:30:56;;;;;;;6.45;1.63;;;19.60;97.80;;;;;;4927307;29;20059;-60
2023/07/04 10:33:34;;;;;;;5.72;1.40;;;19.70;97.30;;;;;;4916562;29;20541;-60
2023/07/04 10:36:00;;;;;;;7.60;1.60;;;19.80;96.50;;;;;;4918171;29;20099;-61
2023/07/04 10:38:47;;;;;;;3.92;1.48;;;19.70;96.30;;;;;;4906622;29;20536;-60
2023/07/04 10:41:39;;;;;;;8.82;1.80;;;19.50;96.30;;;;;;4920373;29;20075;-61
2023/07/04 10:44:19;;;;;;;6.45;1.80;;;19.50;96.50;;;;;;4934900;28;20138;-60
2023/07/04 10:46:54;;;;;;;7.22;1.58;;;19.50;96.30;;;;;;4935292;28;20046;-60
2023/07/04 10:49:23;;;;;;;6.72;1.80;;;19.60;96.20;;;;;;4921490;29;20052;-62
2023/07/04 10:52:05;;;;;;;7.22;1.50;;;19.60;95.30;;;;;;4916729;28;20492;-59
2023/07/04 10:54:30;;;;;;;6.28;2.00;;;19.50;94.70;;;;;;4936936;28;20039;-61
2023/07/04 10:57:22;;;;;;;8.43;2.08;;;19.50;95.10;;;;;;4905670;29;20397;-61
2023/07/04 10:59:50;;;;;;;7.03;1.50;;;19.60;94.90;;;;;;4918987;28;20061;-62
2023/07/04 11:02:31;;;;;;;11.90;1.35;;;19.60;94.60;;;;;;4940049;28;20225;-60
2023/07/04 11:05:08;;;;;;;7.78;2.05;;;19.60;94.00;;;;;;4933192;29;20070;-61
2023/07/04 11:07:38;;;;;;;4.68;1.50;;;19.80;93.50;;;;;;4941588;28;20043;-61
2023/07/04 11:10:06;;;;;;;7.60;1.80;;;20.00;92.90;;;;;;4926335;28;20044;-61
2023/07/04 11:12:34;;;;;;;6.43;1.80;;;20.30;92.50;;;;;;4926634;28;20051;-60
2023/07/04 11:15:04;;;;;;;7.97;2.13;;;20.60;92.30;;;;;;4924165;29;20603;-61
2023/07/04 11:17:33;;;;;;;8.38;1.98;;;20.90;91.40;;;;;;4915813;29;20042;-62
2023/07/04 11:20:17;;;;;;;9.57;1.45;;;21.10;90.60;;;;;;4924487;29;20079;-61
2023/07/04 11:22:57;;;;;;;6.63;1.83;;;21.10;88.70;;;;;;4921621;29;20055;-60
2023/07/04 11:25:58;;;;;;;9.75;1.88;;;21.10;89.40;;;;;;4898601;29;20102;-61
2023/07/04 11:28:36;;;;;;;3.92;1.67;;;21.00;86.10;;;;;;4922879;29;20047;-61
2023/07/04 11:31:27;;;;;;;7.47;1.77;;;20.70;87.40;;;;;;4920350;28;20101;-60
2023/07/04 11:33:53;;;;;;;10.10;1.75;;;20.50;86.60;;;;;;4930138;28;20063;-60
2023/07/04 11:36:33;;;;;;;5.22;1.40;;;20.50;86.10;;;;;;4927015;28;20120;-62
2023/07/04 11:39:04;;;;;;;9.77;1.67;;;20.80;86.00;;;;;;4943898;28;20586;-61
2023/07/04 11:41:40;;;;;;;4.75;1.80;;;21.10;85.80;;;;;;4931541;29;20047;-61
2023/07/04 11:44:44;;;;;;;5.38;1.50;;;21.40;83.40;;;;;;4943857;28;20106;-61
2023/07/04 11:47:15;;;;;;;7.30;1.80;;;21.60;84.00;;;;;;4925223;29;20050;-61
2023/07/04 11:49:54;;;;;;;5.70;1.60;;;21.50;83.10;;;;;;4926616;28;20874;-60
2023/07/04 11:52:27;;;;;;;6.70;1.48;;;21.60;81.40;;;;;;4941169;28;20499;-61
2023/07/04 11:54:58;;;;;;;10.30;1.77;;;21.70;80.80;;;;;;4942887;28;20392;-61
2023/07/04 11:57:43;;;;;;;11.38;2.10;;;21.90;80.70;;;;;;4930661;29;20221;-61
2023/07/04 12:00:23;;;;;;;6.18;1.52;;;21.90;79.90;;;;;;4928247;28;20071;-60
2023/07/04 12:02:49;;;;;;;6.13;1.70;;;22.10;81.10;;;;;;4921603;29;20055;-60
2023/07/04 12:05:33;;;;;;;6.65;1.73;;;22.30;81.20;;;;;;4943904;28;20511;-61
2023/07/04 12:08:07;;;;;;;7.15;1.77;;;22.30;79.30;;;;;;4925562;29;20043;-61
2023/07/04 12:10:35;;;;;;;8.73;1.60;;;22.10;77.90;;;;;;4912550;28;20050;-59
2023/07/04 12:13:03;;;;;;;6.90;1.63;;;22.10;78.00;;;;;;4931114;28;20392;-60
2023/07/04 12:15:32;;;;;;;7.55;1.83;;;22.20;77.40;;;;;;4923466;29;20043;-59
2023/07/04 12:18:13;;;;;;;5.25;1.60;;;22.40;77.00;;;;;;4944146;28;20507;-59
2023/07/04 12:20:39;;;;;;;8.77;1.77;;;22.70;76.80;;;;;;4906476;28;20123;-59
2023/07/04 12:23:09;;;;;;;8.60;1.70;;;22.90;76.30;;;;;;4941045;28;20044;-60
2023/07/04 12:25:49;;;;;;;7.85;1.80;;;23.10;76.10;;;;;;4940489;28;20530;-61
2023/07/04 12:28:17;;;;;;;8.65;1.60;;;23.40;75.50;;;;;;4944446;28;20043;-60
2023/07/04 12:30:56;;;;;;;5.38;1.60;;;23.60;74.10;;;;;;4930629;29;20491;-59
2023/07/04 12:33:30;;;;;;;7.45;2.33;;;23.60;72.50;;;;;;4940971;28;20047;-59
2023/07/04 12:36:06;;;;;;;7.07;1.50;;;23.60;71.80;;;;;;4944076;28;20489;-59
2023/07/04 12:38:36;;;;;;;7.88;1.58;;;23.60;69.00;;;;;;4940017;28;20046;-59
2023/07/04 12:41:01;;;;;;;5.95;1.75;;;23.60;68.90;;;;;;4939688;28;20031;-60
2023/07/04 12:43:32;;;;;;;5.88;1.40;;;23.50;68.80;;;;;;4929937;28;20058;-59
2023/07/04 12:46:18;;;;;;;6.50;1.65;;;23.40;69.10;;;;;;4943282;28;20058;-60
2023/07/04 12:48:45;;;;;;;7.80;1.83;;;23.20;69.40;;;;;;4942405;28;20249;-60
2023/07/04 12:51:15;;;;;;;6.40;1.98;;;23.00;69.70;;;;;;4940050;28;20158;-59
2023/07/04 12:53:44;;;;;;;5.38;1.65;;;23.00;69.90;;;;;;4941761;28;20036;-60
2023/07/04 12:56:12;;;;;;;7.38;1.70;;;23.20;70.00;;;;;;4942793;28;20449;-60
2023/07/04 12:58:44;;;;;;;5.10;1.63;;;23.50;68.30;;;;;;4942177;28;20034;-60